createdAt,value
2022-08-23T00:00:13.156Z,16.84
2022-08-23T00:05:47.737Z,16.87
2022-08-23T00:12:06.241Z,16.89
2022-08-23T00:17:55.640Z,16.94
2022-08-23T00:23:41.646Z,16.99
2022-08-23T00:30:35.679Z,17.05
2022-08-23T00:36:33.974Z,17.13
2022-08-23T00:42:40.048Z,17.19
2022-08-23T00:48:37.727Z,17.22
2022-08-23T00:54:48.220Z,17.22
2022-08-23T01:00:23.416Z,17.21
2022-08-23T01:06:13.294Z,17.19
2022-08-23T01:12:05.566Z,17.19
2022-08-23T01:18:06.649Z,17.19
2022-08-23T01:24:05.255Z,17.24
2022-08-23T01:29:34.513Z,17.29
2022-08-23T01:35:07.943Z,17.32
2022-08-23T01:40:47.179Z,17.32
2022-08-23T01:46:54.996Z,17.24
2022-08-23T01:52:19.666Z,17.19
2022-08-23T01:57:59.156Z,17.17
2022-08-23T02:03:46.668Z,17.16
2022-08-23T02:09:17.877Z,17.14
2022-08-23T02:14:51.176Z,17.10
2022-08-23T02:20:47.037Z,17.08
2022-08-23T02:26:13.517Z,17.06
2022-08-23T02:31:46.380Z,17.02
2022-08-23T02:37:17.759Z,16.98
2022-08-23T02:42:47.444Z,16.97
2022-08-23T02:48:17.686Z,16.93
2022-08-23T02:53:59.516Z,16.87
2022-08-23T02:59:50.667Z,16.84
2022-08-23T03:05:45.111Z,16.87
2022-08-23T03:11:25.285Z,16.95
2022-08-23T03:17:00.363Z,16.99
2022-08-23T03:22:26.793Z,16.99
2022-08-23T03:28:01.546Z,16.97
2022-08-23T03:33:57.745Z,16.87
2022-08-23T03:39:47.719Z,16.87
2022-08-23T03:45:44.332Z,16.95
2022-08-23T03:51:42.039Z,16.95
2022-08-23T03:57:30.147Z,16.92
2022-08-23T04:03:40.324Z,16.87
2022-08-23T04:10:03.353Z,16.82
2022-08-23T04:16:10.170Z,16.86
2022-08-23T04:22:41.542Z,16.92
2022-08-23T04:29:11.669Z,17.00
2022-08-23T04:35:53.230Z,17.02
2022-08-23T04:42:26.751Z,17.07
2022-08-23T04:49:09.268Z,17.11
2022-08-23T04:55:16.764Z,17.12
2022-08-23T05:01:16.377Z,17.19
2022-08-23T05:06:57.840Z,17.24
2022-08-23T05:12:28.307Z,17.32
2022-08-23T05:17:52.462Z,17.36
2022-08-23T05:23:40.776Z,17.49
2022-08-23T05:29:26.587Z,17.61
2022-08-23T05:35:33.524Z,17.72
2022-08-23T05:41:07.055Z,17.84
2022-08-23T05:47:24.685Z,17.91
2022-08-23T05:53:01.841Z,17.98
2022-08-23T05:58:44.464Z,18.09
2022-08-23T06:04:18.212Z,18.20
2022-08-23T06:09:44.275Z,18.31
2022-08-23T06:15:18.683Z,18.37
2022-08-23T06:21:16.843Z,18.38
2022-08-23T06:26:42.751Z,18.50
2022-08-23T06:32:09.472Z,18.70
2022-08-23T06:37:39.440Z,19.00
2022-08-23T06:43:13.749Z,19.27
2022-08-23T06:49:05.690Z,19.40
2022-08-23T06:55:20.577Z,19.47
2022-08-23T07:01:54.755Z,19.51
2022-08-23T07:08:16.631Z,19.69
2022-08-23T07:13:55.331Z,19.80
2022-08-23T07:19:49.373Z,19.78
2022-08-23T07:25:29.584Z,19.92
2022-08-23T07:31:27.796Z,19.96
2022-08-23T07:36:54.526Z,20.09
2022-08-23T07:42:23.412Z,20.22
2022-08-23T07:47:37.502Z,20.37
2022-08-23T07:52:54.544Z,20.46
2022-08-23T07:58:36.109Z,20.41
2022-08-23T08:04:10.181Z,20.40
2022-08-23T08:09:21.244Z,20.48
2022-08-23T08:14:55.826Z,20.50
2022-08-23T08:20:31.008Z,20.61
2022-08-23T08:26:37.363Z,20.76
2022-08-23T08:31:54.018Z,20.83
2022-08-23T08:37:03.870Z,20.91
2022-08-23T08:42:47.699Z,20.92
2022-08-23T08:48:15.768Z,20.94
2022-08-23T08:53:42.331Z,20.95
2022-08-23T09:00:08.344Z,21.00
2022-08-23T09:05:31.932Z,21.21
2022-08-23T09:11:12.467Z,21.50
2022-08-23T09:17:00.018Z,21.83
2022-08-23T09:23:06.077Z,21.85
2022-08-23T09:28:31.844Z,21.79
2022-08-23T09:33:54.250Z,21.68
2022-08-23T09:39:51.740Z,21.70
2022-08-23T09:45:02.138Z,21.56
2022-08-23T09:50:25.391Z,21.31
2022-08-23T09:56:04.342Z,21.12
2022-08-23T10:01:40.110Z,20.97
2022-08-23T10:07:33.059Z,20.80
2022-08-23T10:12:50.416Z,20.74
2022-08-23T10:18:52.440Z,20.75
2022-08-23T10:24:38.884Z,20.83
2022-08-23T10:30:05.546Z,20.79
2022-08-23T10:35:41.114Z,20.67
2022-08-23T10:41:31.428Z,20.61
2022-08-23T10:46:44.985Z,20.65
2022-08-23T10:52:16.871Z,20.63
2022-08-23T10:57:36.378Z,20.77
2022-08-23T11:03:18.033Z,20.97
2022-08-23T11:08:47.911Z,21.38
2022-08-23T11:14:12.890Z,21.73
2022-08-23T11:19:59.338Z,21.91
2022-08-23T11:25:43.559Z,21.98
2022-08-23T11:31:36.530Z,22.05
2022-08-23T11:37:42.222Z,21.98
2022-08-23T11:43:26.625Z,21.93
2022-08-23T11:48:46.639Z,21.67
2022-08-23T11:54:33.682Z,21.48
2022-08-23T12:00:46.911Z,21.42
2022-08-23T12:06:12.561Z,21.38
2022-08-23T12:11:48.698Z,21.33
2022-08-23T12:17:34.009Z,21.41
2022-08-23T12:23:24.405Z,21.59
2022-08-23T12:29:06.487Z,22.05
2022-08-23T12:35:26.987Z,22.38
2022-08-23T12:40:43.752Z,22.83
2022-08-23T12:46:18.825Z,23.19
2022-08-23T12:51:29.637Z,23.49
2022-08-23T12:57:00.303Z,23.83
2022-08-23T13:02:32.311Z,23.88
2022-08-23T13:07:43.501Z,23.61
2022-08-23T13:12:55.672Z,23.56
2022-08-23T13:18:06.915Z,23.68
2022-08-23T13:23:17.570Z,23.73
2022-08-23T13:28:27.311Z,23.63
2022-08-23T13:33:40.948Z,23.59
2022-08-23T13:39:05.171Z,23.42
2022-08-23T13:44:37.226Z,23.30
2022-08-23T13:49:49.703Z,23.38
2022-08-23T13:54:56.080Z,23.51
2022-08-23T14:00:06.934Z,23.83
2022-08-23T14:05:23.257Z,24.15
2022-08-23T14:10:41.095Z,24.44
2022-08-23T14:21:29.650Z,24.44
2022-08-23T14:26:36.559Z,24.31
2022-08-23T14:31:46.153Z,24.20
2022-08-23T14:42:31.864Z,23.83
2022-08-23T14:47:41.736Z,23.63
2022-08-23T14:52:51.737Z,23.54
2022-08-23T14:58:04.530Z,23.54
2022-08-23T15:03:22.768Z,23.75
2022-08-23T15:08:43.617Z,23.86
2022-08-23T15:13:55.525Z,23.70
2022-08-23T15:19:02.676Z,23.41
2022-08-23T15:24:14.243Z,23.27
2022-08-23T15:29:26.830Z,23.23
2022-08-23T15:34:59.264Z,23.22
2022-08-23T15:40:25.932Z,23.11
2022-08-23T15:45:41.849Z,22.91
2022-08-23T15:50:58.337Z,22.82
2022-08-23T15:56:11.093Z,22.72
2022-08-23T16:01:45.146Z,22.65
2022-08-23T16:07:10.468Z,22.54
2022-08-23T16:12:18.687Z,22.47
2022-08-23T16:18:07.676Z,22.43
2022-08-23T16:23:33.816Z,22.33
2022-08-23T16:29:36.026Z,22.09
2022-08-23T16:35:00.230Z,21.98
2022-08-23T16:40:24.743Z,21.90
2022-08-23T16:46:18.347Z,21.75
2022-08-23T16:51:26.397Z,21.57
2022-08-23T16:56:42.457Z,21.39
2022-08-23T17:01:51.797Z,21.24
2022-08-23T17:07:16.569Z,21.15
2022-08-23T17:12:22.582Z,21.03
2022-08-23T17:17:51.081Z,20.87
2022-08-23T17:23:06.138Z,20.66
2022-08-23T17:28:32.435Z,20.48
2022-08-23T17:33:43.502Z,20.32
2022-08-23T17:39:24.539Z,20.13
2022-08-23T17:44:42.662Z,19.92
2022-08-23T17:49:51.432Z,19.71
2022-08-23T17:55:02.257Z,19.51
2022-08-23T18:00:21.269Z,19.34
2022-08-23T18:05:40.796Z,19.25
2022-08-23T18:10:54.807Z,19.20
2022-08-23T18:16:21.210Z,19.17
2022-08-23T18:21:53.537Z,19.10
2022-08-23T18:27:21.344Z,19.11
2022-08-23T18:32:49.116Z,19.09
2022-08-23T18:38:06.667Z,19.06
2022-08-23T18:43:37.184Z,19.04
2022-08-23T18:48:56.362Z,19.02
2022-08-23T18:54:02.742Z,19.03
2022-08-23T18:59:17.750Z,19.01
2022-08-23T19:04:20.728Z,19.00
2022-08-23T19:09:41.137Z,19.01
2022-08-23T19:14:43.279Z,18.98
2022-08-23T19:19:45.528Z,18.98
2022-08-23T19:24:56.428Z,18.97
2022-08-23T19:30:09.115Z,18.94
2022-08-23T19:35:37.309Z,18.94
2022-08-23T19:40:52.866Z,18.92
2022-08-23T19:46:21.426Z,18.88
2022-08-23T19:51:33.358Z,18.86
2022-08-23T19:57:05.914Z,18.82
2022-08-23T20:02:17.129Z,18.77
2022-08-23T20:07:23.191Z,18.71
2022-08-23T20:12:34.130Z,18.64
2022-08-23T20:17:44.888Z,18.56
2022-08-23T20:23:20.500Z,18.49
2022-08-23T20:29:18.242Z,18.46
2022-08-23T20:34:52.503Z,18.47
2022-08-23T20:40:26.299Z,18.51
2022-08-23T20:46:09.289Z,18.56
2022-08-23T20:51:38.553Z,18.57
2022-08-23T20:56:54.121Z,18.61
2022-08-23T21:02:28.296Z,18.63
2022-08-23T21:07:40.896Z,18.67
2022-08-23T21:13:17.471Z,18.69
2022-08-23T21:18:42.247Z,18.71
2022-08-23T21:24:12.217Z,18.72
2022-08-23T21:29:43.594Z,18.71
2022-08-23T21:35:03.374Z,18.73
2022-08-23T21:40:21.609Z,18.75
2022-08-23T21:45:53.104Z,18.72
2022-08-23T21:51:31.590Z,18.68
2022-08-23T21:56:52.296Z,18.64
2022-08-23T22:02:32.761Z,18.61
2022-08-23T22:08:17.072Z,18.56
2022-08-23T22:13:51.819Z,18.53
2022-08-23T22:19:19.899Z,18.47
2022-08-23T22:24:43.177Z,18.41
2022-08-23T22:29:53.575Z,18.39
2022-08-23T22:35:32.760Z,18.35
2022-08-23T22:41:03.149Z,18.37
2022-08-23T22:46:20.352Z,18.37
2022-08-23T22:51:55.087Z,18.35
2022-08-23T22:57:14.095Z,18.32
2022-08-23T23:02:32.441Z,18.32
2022-08-23T23:07:56.481Z,18.29
2022-08-23T23:13:40.161Z,18.27
2022-08-23T23:19:25.209Z,18.23
2022-08-23T23:25:18.101Z,18.22
2022-08-23T23:30:35.201Z,18.22
2022-08-23T23:36:11.922Z,18.19
2022-08-23T23:42:00.385Z,18.16
2022-08-23T23:47:18.349Z,18.16
2022-08-23T23:52:58.823Z,18.12
2022-08-23T23:58:21.723Z,18.07
